AirNav   TITAN Aviation Fuels
 
 491 users online  

LA65 Acadian Medical Center Heliport
Eunice, Louisiana, USA

GOING TO EUNICE?


FAA INFORMATION EFFECTIVE 08 SEPTEMBER 2022

Location

FAA Identifier: LA65
Lat/Long: 30-29-48.0000N 092-23-14.0000W
30-29.800000N 092-23.233333W
30.4966667,-92.3872222
(estimated)
Elevation: 56 ft. / 17 m (estimated)
From city: 1 mile ENE of EUNICE, LA
Time zone: UTC -5 (UTC -6 during Standard Time)
Zip code: 70535

Heliport Operations

Heliport use: Private use, MEDICAL USE.
Activation date: 02/2006
Control tower: no
ARTCC: HOUSTON CENTER
FSS: DE RIDDER FLIGHT SERVICE STATION
Attendance: CONTINUOUS
Wind indicator: lighted
Segmented circle: no
Lights: SS-SR

Heliport Communications

WX AWOS-3PT at OPL (15 nm E): 118.775 (337-948-8560)

Nearby radio navigation aids

VOR radial/distance  VOR name  Freq  Var
LFTr309/27.3LAFAYETTE VORTAC109.8003E

 
NDB name  Hdg/Dist  Freq  Var  ID
DURALDE138/4.926302EECY . -.-. -.--
ABBEVILLE330/29.523002EBNZ -... -. --..

Heliport Services

Runway Information

Helipad H1

Dimensions: 40 x 40 ft. / 12 x 12 m
Surface: concrete
Runway edge lights: PERI
Traffic pattern: leftleft

Heliport Ownership and Management from official FAA records

Ownership: Privately-owned
Owner: ACADIAN MED CNTR
3501 HWY 190 EAST
EUNICE, LA 70535
Phone 337-580-7500
Manager: TONY JOHNSON
3501 HWY 190 EAST
EUNICE, LA 70530
Phone 337-580-7500

Additional Remarks

FOR CD CTC LAFAYETTE APCH AT 337-262-2729, WHEN APCH CLSD CTC HOUSTON ARTCC AT 281-230-5622.

Instrument Procedures

There are no published instrument procedures at LA65.

Some nearby airports with instrument procedures:

4R7 - Eunice Airport (3 nm SW)
KOPL - St Landry Parish Airport-Ahart Field (15 nm E)
3R7 - Jennings Airport (21 nm SW)
KACP - Allen Parish Airport (22 nm NW)
KLFT - Lafayette Regional Airport/Paul Fournet Field (27 nm SE)
 
Loc | Ops | Rwys | IFR | FBO | Links
Com | Nav | Svcs | Stats | Notes
Aerial photo
No photo
 
Sectional chart

 
Airport distance calculator
Flying to Acadian Medical Center Heliport? Find the distance to fly.

From to LA65

Sunrise and sunset
Times for 02-Oct-2022
 Local
(UTC-5)
 Zulu
(UTC)
Morning civil twilight06:4111:41
Sunrise07:0512:05
Sunset18:5323:53
Evening civil twilight19:1700:17

Current date and time
Zulu (UTC)  02-Oct-2022 11:10:10
Local (UTC-5)  02-Oct-2022 06:10:10
 
METAR
KOPL 
15nm E 
021055Z AUTO 00000KT 10SM CLR 09/09 A3008 RMK AO2 T00870087
K3R7 
21nm SW 
021055Z AUTO 00000KT 10SM CLR 12/10 A3008 RMK AO2 T01150095
KACP 
22nm NW 
021055Z AUTO 00000KT 10SM CLR 07/06 A3008 RMK AO2
KLFT 
27nm SE 
021053Z 00000KT 10SM CLR 13/10 A3006 RMK AO2 SLP180 T01330100
TAF
KLFT 
27nm SE 
020520Z 0206/0306 VRB04KT P6SM SKC FM021500 01007KT P6SM SKC FM030100 VRB03KT P6SM SKC
NOTAMs
Click for the latest NOTAMs
NOTAMs are issued by the DoD/FAA and will open in a separate window not controlled by AirNav.

 

 
 

Would you like to see your business listed on this page?

 If your business provides an interesting product or service to pilots, flight crews, aircraft, or users of the Acadian Medical Center Heliport, you should consider listing it here.  To start the listing process, click on the button below
 
Add a business
 

Other Pages about Acadian Medical Center Heliport

Update a link
 
Copyright © AirNav, LLC. All rights reserved. Privacy Policy  Contact